sensor_id;sensor_type;location;lat;lon;timestamp;pressure;altitude;pressure_sealevel;temperature;humidity
13387;BME280;6763;48.524;9.044;2023-05-08T00:00:25;98019.22;;;20.29;60.65
13387;BME280;6763;48.524;9.044;2023-05-08T00:02:51;98015.06;;;20.25;60.62
13387;BME280;6763;48.524;9.044;2023-05-08T00:05:16;98021.19;;;20.25;60.70
13387;BME280;6763;48.524;9.044;2023-05-08T00:07:41;98010.78;;;20.22;60.73
13387;BME280;6763;48.524;9.044;2023-05-08T00:10:08;98015.97;;;20.24;60.62
13387;BME280;6763;48.524;9.044;2023-05-08T00:12:34;98009.06;;;20.21;60.63
13387;BME280;6763;48.524;9.044;2023-05-08T00:14:59;98010.84;;;20.21;60.75
13387;BME280;6763;48.524;9.044;2023-05-08T00:17:25;98008.94;;;20.24;60.73
13387;BME280;6763;48.524;9.044;2023-05-08T00:19:51;98011.56;;;20.24;60.55
13387;BME280;6763;48.524;9.044;2023-05-08T00:22:17;98009.00;;;20.23;60.62
13387;BME280;6763;48.524;9.044;2023-05-08T00:24:43;98015.97;;;20.24;60.44
13387;BME280;6763;48.524;9.044;2023-05-08T00:27:08;98016.19;;;20.19;60.78
13387;BME280;6763;48.524;9.044;2023-05-08T00:29:33;98022.47;;;20.17;61.17
13387;BME280;6763;48.524;9.044;2023-05-08T00:31:59;98012.28;;;20.11;61.11
13387;BME280;6763;48.524;9.044;2023-05-08T00:34:25;98023.91;;;20.07;61.29
13387;BME280;6763;48.524;9.044;2023-05-08T00:36:50;98029.31;;;20.04;61.45
13387;BME280;6763;48.524;9.044;2023-05-08T00:39:16;98024.16;;;20.02;61.34
13387;BME280;6763;48.524;9.044;2023-05-08T00:41:41;98019.09;;;19.98;61.63
13387;BME280;6763;48.524;9.044;2023-05-08T00:44:07;98027.84;;;19.98;61.64
13387;BME280;6763;48.524;9.044;2023-05-08T00:46:33;98018.50;;;19.93;61.73
13387;BME280;6763;48.524;9.044;2023-05-08T00:48:59;98017.66;;;19.92;61.64
13387;BME280;6763;48.524;9.044;2023-05-08T00:51:25;98025.47;;;19.94;61.52
13387;BME280;6763;48.524;9.044;2023-05-08T00:53:52;98027.31;;;19.92;61.59
13387;BME280;6763;48.524;9.044;2023-05-08T00:56:19;98031.63;;;19.93;61.54
13387;BME280;6763;48.524;9.044;2023-05-08T00:58:45;98033.59;;;19.89;61.57
13387;BME280;6763;48.524;9.044;2023-05-08T01:01:13;98032.81;;;19.87;61.69
13387;BME280;6763;48.524;9.044;2023-05-08T01:03:39;98032.03;;;19.85;61.88
13387;BME280;6763;48.524;9.044;2023-05-08T01:06:05;98029.56;;;19.82;61.85
13387;BME280;6763;48.524;9.044;2023-05-08T01:08:31;98040.00;;;19.84;61.96
13387;BME280;6763;48.524;9.044;2023-05-08T01:11:16;98040.06;;;19.82;61.80
13387;BME280;6763;48.524;9.044;2023-05-08T01:14:06;98037.63;;;19.79;62.01
13387;BME280;6763;48.524;9.044;2023-05-08T01:16:39;98037.84;;;19.74;62.00
13387;BME280;6763;48.524;9.044;2023-05-08T01:33:01;98039.94;;;19.68;61.98
13387;BME280;6763;48.524;9.044;2023-05-08T01:35:36;98038.84;;;19.72;61.94
13387;BME280;6763;48.524;9.044;2023-05-08T01:38:14;98031.97;;;19.69;61.90
13387;BME280;6763;48.524;9.044;2023-05-08T01:40:56;98038.09;;;19.70;61.93
13387;BME280;6763;48.524;9.044;2023-05-08T01:43:32;98040.72;;;19.70;62.05
13387;BME280;6763;48.524;9.044;2023-05-08T01:46:04;98039.84;;;19.69;62.01
13387;BME280;6763;48.524;9.044;2023-05-08T01:48:34;98049.50;;;19.69;61.89
13387;BME280;6763;48.524;9.044;2023-05-08T01:51:16;98052.22;;;19.67;62.03
13387;BME280;6763;48.524;9.044;2023-05-08T01:53:48;98053.94;;;19.68;61.90
13387;BME280;6763;48.524;9.044;2023-05-08T01:56:18;98055.63;;;19.69;62.13
13387;BME280;6763;48.524;9.044;2023-05-08T01:58:46;98053.06;;;19.68;62.31
13387;BME280;6763;48.524;9.044;2023-05-08T02:01:14;98053.06;;;19.68;62.43
13387;BME280;6763;48.524;9.044;2023-05-08T02:03:43;98050.44;;;19.68;62.27
13387;BME280;6763;48.524;9.044;2023-05-08T02:06:11;98047.72;;;19.69;62.06
13387;BME280;6763;48.524;9.044;2023-05-08T02:08:38;98055.56;;;19.71;62.33
13387;BME280;6763;48.524;9.044;2023-05-08T02:11:05;98064.25;;;19.71;62.45
13387;BME280;6763;48.524;9.044;2023-05-08T02:13:32;98053.06;;;19.68;62.14
13387;BME280;6763;48.524;9.044;2023-05-08T02:16:00;98061.81;;;19.68;62.37
13387;BME280;6763;48.524;9.044;2023-05-08T02:18:26;98054.75;;;19.69;62.38
13387;BME280;6763;48.524;9.044;2023-05-08T02:20:54;98056.56;;;19.68;62.30
13387;BME280;6763;48.524;9.044;2023-05-08T02:23:22;98057.31;;;19.70;62.35
13387;BME280;6763;48.524;9.044;2023-05-08T02:25:50;98060.63;;;19.74;62.14
13387;BME280;6763;48.524;9.044;2023-05-08T02:28:18;98053.53;;;19.76;61.96
13387;BME280;6763;48.524;9.044;2023-05-08T02:30:44;98051.78;;;19.76;61.87
13387;BME280;6763;48.524;9.044;2023-05-08T02:33:11;98055.16;;;19.78;61.97
13387;BME280;6763;48.524;9.044;2023-05-08T02:35:39;98053.44;;;19.77;61.92
13387;BME280;6763;48.524;9.044;2023-05-08T02:38:07;98051.53;;;19.81;62.09
13387;BME280;6763;48.524;9.044;2023-05-08T02:40:36;98058.47;;;19.82;62.04
13387;BME280;6763;48.524;9.044;2023-05-08T02:43:03;98047.94;;;19.82;61.96
13387;BME280;6763;48.524;9.044;2023-05-08T02:45:34;98053.06;;;19.85;61.87
13387;BME280;6763;48.524;9.044;2023-05-08T02:51:03;98047.75;;;19.87;61.92
13387;BME280;6763;48.524;9.044;2023-05-08T02:53:35;98049.34;;;19.89;62.05
13387;BME280;6763;48.524;9.044;2023-05-08T02:56:09;98049.16;;;19.92;61.87
13387;BME280;6763;48.524;9.044;2023-05-08T02:58:44;98048.19;;;19.95;61.63
13387;BME280;6763;48.524;9.044;2023-05-08T03:01:20;98056.13;;;19.93;61.77
13387;BME280;6763;48.524;9.044;2023-05-08T03:03:53;98056.22;;;19.92;61.58
13387;BME280;6763;48.524;9.044;2023-05-08T03:06:24;98051.91;;;19.91;61.81
13387;BME280;6763;48.524;9.044;2023-05-08T03:08:52;98055.38;;;19.91;62.05
13387;BME280;6763;48.524;9.044;2023-05-08T03:11:25;98050.38;;;19.87;61.79
13387;BME280;6763;48.524;9.044;2023-05-08T03:13:57;98052.13;;;19.86;61.65
13387;BME280;6763;48.524;9.044;2023-05-08T03:16:25;98054.00;;;19.84;61.95
13387;BME280;6763;48.524;9.044;2023-05-08T03:19:06;98046.34;;;19.79;61.59
13387;BME280;6763;48.524;9.044;2023-05-08T03:21:31;98048.03;;;19.80;61.90
13387;BME280;6763;48.524;9.044;2023-05-08T03:23:59;98044.66;;;19.78;61.89
13387;BME280;6763;48.524;9.044;2023-05-08T03:26:26;98038.63;;;19.76;61.68
13387;BME280;6763;48.524;9.044;2023-05-08T03:28:53;98040.31;;;19.77;62.04
13387;BME280;6763;48.524;9.044;2023-05-08T03:31:21;98044.81;;;19.75;61.97
13387;BME280;6763;48.524;9.044;2023-05-08T03:33:47;98044.03;;;19.73;62.12
13387;BME280;6763;48.524;9.044;2023-05-08T03:36:15;98046.56;;;19.75;61.72
13387;BME280;6763;48.524;9.044;2023-05-08T03:38:41;98045.88;;;19.71;61.90
13387;BME280;6763;48.524;9.044;2023-05-08T03:41:07;98042.41;;;19.71;61.87
13387;BME280;6763;48.524;9.044;2023-05-08T03:43:32;98048.69;;;19.68;61.83
13387;BME280;6763;48.524;9.044;2023-05-08T03:46:00;98049.50;;;19.69;61.69
13387;BME280;6763;48.524;9.044;2023-05-08T03:48:27;98044.34;;;19.67;61.90
13387;BME280;6763;48.524;9.044;2023-05-08T03:50:55;98051.31;;;19.68;61.78
13387;BME280;6763;48.524;9.044;2023-05-08T03:53:21;98047.72;;;19.69;61.83
13387;BME280;6763;48.524;9.044;2023-05-08T03:55:47;98046.81;;;19.70;61.68
13387;BME280;6763;48.524;9.044;2023-05-08T03:58:33;98057.31;;;19.70;61.46
13387;BME280;6763;48.524;9.044;2023-05-08T04:01:38;98061.72;;;19.70;61.53
13387;BME280;6763;48.524;9.044;2023-05-08T04:04:18;98057.38;;;19.69;61.63
13387;BME280;6763;48.524;9.044;2023-05-08T04:07:11;98058.34;;;19.68;61.55
13387;BME280;6763;48.524;9.044;2023-05-08T04:09:43;98066.97;;;19.70;61.61
13387;BME280;6763;48.524;9.044;2023-05-08T04:15:08;98063.59;;;19.68;61.84
13387;BME280;6763;48.524;9.044;2023-05-08T04:18:08;98072.47;;;19.65;61.72
13387;BME280;6763;48.524;9.044;2023-05-08T04:20:34;98071.63;;;19.65;61.95
13387;BME280;6763;48.524;9.044;2023-05-08T04:23:02;98074.16;;;19.66;62.20
13387;BME280;6763;48.524;9.044;2023-05-08T04:25:29;98076.00;;;19.64;61.96
13387;BME280;6763;48.524;9.044;2023-05-08T04:27:55;98077.63;;;19.67;61.84
13387;BME280;6763;48.524;9.044;2023-05-08T04:30:22;98078.63;;;19.64;61.75
13387;BME280;6763;48.524;9.044;2023-05-08T04:32:48;98081.25;;;19.64;61.93
13387;BME280;6763;48.524;9.044;2023-05-08T04:35:13;98081.41;;;19.61;62.08
13387;BME280;6763;48.524;9.044;2023-05-08T04:37:40;98079.59;;;19.63;61.84
13387;BME280;6763;48.524;9.044;2023-05-08T04:40:06;98081.25;;;19.64;62.02
13387;BME280;6763;48.524;9.044;2023-05-08T04:42:31;98081.19;;;19.66;61.79
13387;BME280;6763;48.524;9.044;2023-05-08T04:45:00;98088.13;;;19.67;61.76
13387;BME280;6763;48.524;9.044;2023-05-08T04:47:26;98093.16;;;19.71;61.85
13387;BME280;6763;48.524;9.044;2023-05-08T04:49:51;98085.34;;;19.70;61.86
13387;BME280;6763;48.524;9.044;2023-05-08T04:52:16;98094.88;;;19.72;61.81
13387;BME280;6763;48.524;9.044;2023-05-08T04:54:42;98090.53;;;19.71;61.76
13387;BME280;6763;48.524;9.044;2023-05-08T04:57:07;98093.78;;;19.76;61.66
13387;BME280;6763;48.524;9.044;2023-05-08T04:59:34;98087.53;;;19.79;61.78
13387;BME280;6763;48.524;9.044;2023-05-08T05:01:59;98096.09;;;19.83;61.67
13387;BME280;6763;48.524;9.044;2023-05-08T05:07:54;98106.81;;;19.95;61.78
13387;BME280;6763;48.524;9.044;2023-05-08T05:10:23;98104.91;;;19.99;61.54
13387;BME280;6763;48.524;9.044;2023-05-08T05:12:49;98098.53;;;20.03;61.51
13387;BME280;6763;48.524;9.044;2023-05-08T05:15:18;98107.03;;;20.08;61.29
13387;BME280;6763;48.524;9.044;2023-05-08T05:17:47;98110.13;;;20.16;61.44
13387;BME280;6763;48.524;9.044;2023-05-08T05:20:16;98106.28;;;20.23;61.28
13387;BME280;6763;48.524;9.044;2023-05-08T05:23:03;98104.28;;;20.28;60.98
13387;BME280;6763;48.524;9.044;2023-05-08T05:25:31;98101.25;;;20.35;61.10
13387;BME280;6763;48.524;9.044;2023-05-08T05:28:27;98103.22;;;20.48;60.95
13387;BME280;6763;48.524;9.044;2023-05-08T05:30:57;98102.16;;;20.52;60.95
13387;BME280;6763;48.524;9.044;2023-05-08T05:33:23;98109.28;;;20.65;60.96
13387;BME280;6763;48.524;9.044;2023-05-08T05:36:00;98108.97;;;20.71;60.74
13387;BME280;6763;48.524;9.044;2023-05-08T05:38:29;98106.81;;;20.78;60.50
13387;BME280;6763;48.524;9.044;2023-05-08T05:40:57;98105.59;;;20.85;60.54
13387;BME280;6763;48.524;9.044;2023-05-08T05:43:32;98116.44;;;20.94;60.18
13387;BME280;6763;48.524;9.044;2023-05-08T05:46:07;98106.50;;;20.99;60.30
13387;BME280;6763;48.524;9.044;2023-05-08T05:48:36;98105.25;;;21.07;60.37
13387;BME280;6763;48.524;9.044;2023-05-08T05:51:02;98108.41;;;21.13;60.06
13387;BME280;6763;48.524;9.044;2023-05-08T05:53:28;98106.53;;;21.15;59.88
13387;BME280;6763;48.524;9.044;2023-05-08T05:55:54;98110.03;;;21.16;59.79
13387;BME280;6763;48.524;9.044;2023-05-08T05:58:20;98109.75;;;21.20;59.82
13387;BME280;6763;48.524;9.044;2023-05-08T06:00:46;98105.63;;;21.16;59.59
13387;BME280;6763;48.524;9.044;2023-05-08T06:03:14;98120.47;;;21.17;59.67
13387;BME280;6763;48.524;9.044;2023-05-08T06:05:52;98110.19;;;21.13;59.30
13387;BME280;6763;48.524;9.044;2023-05-08T06:08:37;98113.59;;;21.15;59.36
13387;BME280;6763;48.524;9.044;2023-05-08T06:11:03;98109.34;;;21.12;59.47
13387;BME280;6763;48.524;9.044;2023-05-08T06:13:30;98102.31;;;21.13;59.47
13387;BME280;6763;48.524;9.044;2023-05-08T06:15:56;98114.53;;;21.14;59.60
13387;BME280;6763;48.524;9.044;2023-05-08T06:18:21;98117.94;;;21.16;59.45
13387;BME280;6763;48.524;9.044;2023-05-08T06:20:55;98120.81;;;21.11;59.18
13387;BME280;6763;48.524;9.044;2023-05-08T06:23:21;98113.75;;;21.12;59.53
13387;BME280;6763;48.524;9.044;2023-05-08T06:25:49;98114.59;;;21.12;59.45
13387;BME280;6763;48.524;9.044;2023-05-08T06:28:16;98127.59;;;21.15;59.31
13387;BME280;6763;48.524;9.044;2023-05-08T06:30:41;98125.81;;;21.16;59.30
13387;BME280;6763;48.524;9.044;2023-05-08T06:33:08;98124.06;;;21.16;59.20
13387;BME280;6763;48.524;9.044;2023-05-08T06:35:33;98129.38;;;21.15;59.32
13387;BME280;6763;48.524;9.044;2023-05-08T06:37:58;98129.97;;;21.20;59.27
13387;BME280;6763;48.524;9.044;2023-05-08T06:40:25;98131.59;;;21.22;59.17
13387;BME280;6763;48.524;9.044;2023-05-08T06:42:50;98126.25;;;21.24;59.22
13387;BME280;6763;48.524;9.044;2023-05-08T06:45:16;98132.97;;;21.29;59.10
13387;BME280;6763;48.524;9.044;2023-05-08T06:47:41;98123.09;;;21.33;58.98
13387;BME280;6763;48.524;9.044;2023-05-08T06:50:07;98130.81;;;21.36;59.09
13387;BME280;6763;48.524;9.044;2023-05-08T06:52:33;98125.66;;;21.34;58.97
13387;BME280;6763;48.524;9.044;2023-05-08T06:54:59;98131.56;;;21.38;59.09
13387;BME280;6763;48.524;9.044;2023-05-08T06:57:25;98126.41;;;21.36;58.91
13387;BME280;6763;48.524;9.044;2023-05-08T06:59:53;98127.16;;;21.38;58.78
13387;BME280;6763;48.524;9.044;2023-05-08T07:02:19;98135.75;;;21.42;58.80
13387;BME280;6763;48.524;9.044;2023-05-08T07:04:44;98138.22;;;21.45;58.71
13387;BME280;6763;48.524;9.044;2023-05-08T07:07:10;98124.53;;;21.38;58.73
13387;BME280;6763;48.524;9.044;2023-05-08T07:09:37;98136.03;;;21.37;58.80
13387;BME280;6763;48.524;9.044;2023-05-08T07:12:02;98141.34;;;21.36;58.80
13387;BME280;6763;48.524;9.044;2023-05-08T07:14:28;98132.75;;;21.32;58.77
13387;BME280;6763;48.524;9.044;2023-05-08T07:16:53;98139.00;;;21.31;58.91
13387;BME280;6763;48.524;9.044;2023-05-08T07:19:18;98134.38;;;21.35;58.93
13387;BME280;6763;48.524;9.044;2023-05-08T07:21:44;98135.81;;;21.40;58.68
13387;BME280;6763;48.524;9.044;2023-05-08T07:24:10;98142.63;;;21.44;58.51
13387;BME280;6763;48.524;9.044;2023-05-08T07:26:36;98142.09;;;21.53;58.49
13387;BME280;6763;48.524;9.044;2023-05-08T07:29:01;98144.38;;;21.59;58.36
13387;BME280;6763;48.524;9.044;2023-05-08T07:31:27;98134.91;;;21.71;58.17
13387;BME280;6763;48.524;9.044;2023-05-08T07:33:52;98136.34;;;21.77;58.04
13387;BME280;6763;48.524;9.044;2023-05-08T07:36:18;98145.38;;;21.88;57.87
13387;BME280;6763;48.524;9.044;2023-05-08T07:38:44;98132.50;;;21.98;57.72
13387;BME280;6763;48.524;9.044;2023-05-08T07:41:10;98130.19;;;22.07;57.61
13387;BME280;6763;48.524;9.044;2023-05-08T07:43:35;98143.56;;;22.18;57.35
13387;BME280;6763;48.524;9.044;2023-05-08T07:46:01;98130.88;;;22.25;57.07
13387;BME280;6763;48.524;9.044;2023-05-08T07:48:27;98142.47;;;22.37;56.93
13387;BME280;6763;48.524;9.044;2023-05-08T07:50:52;98143.53;;;22.48;56.62
13387;BME280;6763;48.524;9.044;2023-05-08T07:53:18;98144.56;;;22.60;56.47
13387;BME280;6763;48.524;9.044;2023-05-08T07:55:43;98136.97;;;22.69;56.01
13387;BME280;6763;48.524;9.044;2023-05-08T07:58:09;98142.41;;;22.80;55.73
13387;BME280;6763;48.524;9.044;2023-05-08T08:00:34;98143.47;;;22.92;55.69
13387;BME280;6763;48.524;9.044;2023-05-08T08:03:00;98144.56;;;23.02;55.30
13387;BME280;6763;48.524;9.044;2023-05-08T08:05:26;98143.59;;;23.17;54.91
13387;BME280;6763;48.524;9.044;2023-05-08T08:07:51;98144.63;;;23.29;54.38
13387;BME280;6763;48.524;9.044;2023-05-08T08:10:17;98142.28;;;23.38;54.13
13387;BME280;6763;48.524;9.044;2023-05-08T08:12:42;98151.00;;;23.53;54.00
13387;BME280;6763;48.524;9.044;2023-05-08T08:15:08;98145.97;;;23.63;53.35
13387;BME280;6763;48.524;9.044;2023-05-08T08:17:33;98140.25;;;23.69;52.99
13387;BME280;6763;48.524;9.044;2023-05-08T08:19:59;98154.25;;;23.71;53.10
13387;BME280;6763;48.524;9.044;2023-05-08T08:22:25;98156.66;;;23.74;52.82
13387;BME280;6763;48.524;9.044;2023-05-08T08:24:50;98155.06;;;23.71;52.99
13387;BME280;6763;48.524;9.044;2023-05-08T08:27:16;98148.19;;;23.69;52.77
13387;BME280;6763;48.524;9.044;2023-05-08T08:29:42;98151.16;;;23.64;52.37
13387;BME280;6763;48.524;9.044;2023-05-08T08:32:07;98149.75;;;23.59;52.58
13387;BME280;6763;48.524;9.044;2023-05-08T08:34:33;98152.31;;;23.60;52.50
13387;BME280;6763;48.524;9.044;2023-05-08T08:36:59;98156.94;;;23.57;52.35
13387;BME280;6763;48.524;9.044;2023-05-08T08:39:24;98159.56;;;23.57;52.14
13387;BME280;6763;48.524;9.044;2023-05-08T08:41:51;98148.06;;;23.58;52.29
13387;BME280;6763;48.524;9.044;2023-05-08T08:44:16;98154.94;;;23.60;52.12
13387;BME280;6763;48.524;9.044;2023-05-08T08:46:49;98153.66;;;23.66;52.07
13387;BME280;6763;48.524;9.044;2023-05-08T08:49:18;98153.63;;;23.80;51.90
13387;BME280;6763;48.524;9.044;2023-05-08T08:51:50;98149.22;;;23.93;51.61
13387;BME280;6763;48.524;9.044;2023-05-08T08:54:20;98154.06;;;24.13;51.25
13387;BME280;6763;48.524;9.044;2023-05-08T08:56:48;98160.00;;;24.29;50.82
13387;BME280;6763;48.524;9.044;2023-05-08T08:59:17;98162.47;;;24.45;50.53
13387;BME280;6763;48.524;9.044;2023-05-08T09:01:44;98151.88;;;24.57;50.30
13387;BME280;6763;48.524;9.044;2023-05-08T09:04:11;98152.00;;;24.68;49.83
13387;BME280;6763;48.524;9.044;2023-05-08T09:06:37;98159.72;;;24.72;49.45
13387;BME280;6763;48.524;9.044;2023-05-08T09:09:05;98157.06;;;24.72;49.34
13387;BME280;6763;48.524;9.044;2023-05-08T09:11:30;98152.84;;;24.69;49.25
13387;BME280;6763;48.524;9.044;2023-05-08T09:13:57;98152.06;;;24.67;49.47
13387;BME280;6763;48.524;9.044;2023-05-08T09:16:23;98146.16;;;24.63;49.27
13387;BME280;6763;48.524;9.044;2023-05-08T09:18:48;98150.72;;;24.61;49.10
13387;BME280;6763;48.524;9.044;2023-05-08T09:21:14;98154.84;;;24.65;49.29
13387;BME280;6763;48.524;9.044;2023-05-08T09:26:28;98148.28;;;24.58;48.77
13387;BME280;6763;48.524;9.044;2023-05-08T09:31:37;98155.78;;;24.52;48.83
13387;BME280;6763;48.524;9.044;2023-05-08T09:34:26;98157.59;;;24.51;48.68
13387;BME280;6763;48.524;9.044;2023-05-08T09:36:55;98160.13;;;24.53;48.56
13387;BME280;6763;48.524;9.044;2023-05-08T09:39:34;98159.41;;;24.51;48.63
13387;BME280;6763;48.524;9.044;2023-05-08T09:42:04;98162.06;;;24.51;48.46
13387;BME280;6763;48.524;9.044;2023-05-08T09:44:42;98166.56;;;24.49;48.48
13387;BME280;6763;48.524;9.044;2023-05-08T09:47:10;98163.84;;;24.50;48.75
13387;BME280;6763;48.524;9.044;2023-05-08T09:49:36;98162.25;;;24.48;48.57
13387;BME280;6763;48.524;9.044;2023-05-08T09:52:05;98164.59;;;24.52;48.63
13387;BME280;6763;48.524;9.044;2023-05-08T09:54:30;98158.97;;;24.57;48.39
13387;BME280;6763;48.524;9.044;2023-05-08T09:56:56;98169.34;;;24.60;48.27
13387;BME280;6763;48.524;9.044;2023-05-08T09:59:26;98161.72;;;24.68;48.14
13387;BME280;6763;48.524;9.044;2023-05-08T10:01:52;98162.03;;;24.76;47.54
13387;BME280;6763;48.524;9.044;2023-05-08T10:04:33;98165.97;;;24.83;47.43
13387;BME280;6763;48.524;9.044;2023-05-08T10:06:59;98166.09;;;24.82;46.42
13387;BME280;6763;48.524;9.044;2023-05-08T10:09:25;98165.44;;;24.78;46.70
13387;BME280;6763;48.524;9.044;2023-05-08T10:11:51;98158.69;;;24.87;46.93
13387;BME280;6763;48.524;9.044;2023-05-08T10:14:18;98160.56;;;24.97;46.55
13387;BME280;6763;48.524;9.044;2023-05-08T10:16:46;98163.31;;;24.96;46.39
13387;BME280;6763;48.524;9.044;2023-05-08T10:19:20;98158.78;;;24.98;46.45
13387;BME280;6763;48.524;9.044;2023-05-08T10:21:52;98160.88;;;25.05;46.96
13387;BME280;6763;48.524;9.044;2023-05-08T10:24:25;98162.66;;;25.17;46.72
13387;BME280;6763;48.524;9.044;2023-05-08T10:27:16;98163.16;;;25.22;46.31
13387;BME280;6763;48.524;9.044;2023-05-08T10:29:51;98168.63;;;25.32;45.95
13387;BME280;6763;48.524;9.044;2023-05-08T10:32:22;98167.69;;;25.33;46.06
13387;BME280;6763;48.524;9.044;2023-05-08T10:35:02;98162.81;;;25.27;45.90
13387;BME280;6763;48.524;9.044;2023-05-08T10:37:29;98159.97;;;25.30;46.40
13387;BME280;6763;48.524;9.044;2023-05-08T10:39:56;98163.34;;;25.32;46.02
13387;BME280;6763;48.524;9.044;2023-05-08T10:42:22;98161.50;;;25.09;46.10
13387;BME280;6763;48.524;9.044;2023-05-08T10:44:48;98161.31;;;24.87;46.32
13387;BME280;6763;48.524;9.044;2023-05-08T10:47:23;98158.00;;;24.71;46.27
13387;BME280;6763;48.524;9.044;2023-05-08T10:49:59;98161.09;;;24.52;46.26
13387;BME280;6763;48.524;9.044;2023-05-08T10:52:40;98159.06;;;24.30;46.73
13387;BME280;6763;48.524;9.044;2023-05-08T10:55:31;98156.84;;;24.24;47.30
13387;BME280;6763;48.524;9.044;2023-05-08T10:58:11;98154.38;;;24.21;47.07
13387;BME280;6763;48.524;9.044;2023-05-08T11:03:27;98151.94;;;24.18;47.20
13387;BME280;6763;48.524;9.044;2023-05-08T11:05:54;98148.50;;;24.30;47.06
13387;BME280;6763;48.524;9.044;2023-05-08T11:08:25;98149.34;;;24.43;46.80
13387;BME280;6763;48.524;9.044;2023-05-08T11:13:51;98143.28;;;24.41;46.32
13387;BME280;6763;48.524;9.044;2023-05-08T11:16:17;98150.41;;;24.41;46.89
13387;BME280;6763;48.524;9.044;2023-05-08T11:19:19;98141.50;;;24.29;46.90
13387;BME280;6763;48.524;9.044;2023-05-08T11:24:40;98142.34;;;24.42;47.40
13387;BME280;6763;48.524;9.044;2023-05-08T11:27:05;98138.97;;;24.65;47.10
13387;BME280;6763;48.524;9.044;2023-05-08T11:29:31;98138.53;;;24.97;46.54
13387;BME280;6763;48.524;9.044;2023-05-08T11:31:57;98136.56;;;25.11;45.30
13387;BME280;6763;48.524;9.044;2023-05-08T11:37:18;98130.88;;;25.05;45.38
13387;BME280;6763;48.524;9.044;2023-05-08T11:39:47;98132.28;;;24.98;45.75
13387;BME280;6763;48.524;9.044;2023-05-08T11:45:11;98128.81;;;24.85;46.40
13387;BME280;6763;48.524;9.044;2023-05-08T11:47:42;98125.72;;;24.91;46.75
13387;BME280;6763;48.524;9.044;2023-05-08T11:50:08;98128.03;;;25.08;46.67
13387;BME280;6763;48.524;9.044;2023-05-08T11:52:35;98133.09;;;25.11;46.68
13387;BME280;6763;48.524;9.044;2023-05-08T11:55:05;98124.84;;;25.03;46.48
13387;BME280;6763;48.524;9.044;2023-05-08T11:57:32;98132.72;;;24.92;46.82
13387;BME280;6763;48.524;9.044;2023-05-08T12:00:02;98126.13;;;24.72;47.42
13387;BME280;6763;48.524;9.044;2023-05-08T12:02:42;98126.25;;;24.71;47.57
13387;BME280;6763;48.524;9.044;2023-05-08T12:05:10;98123.47;;;24.72;47.47
13387;BME280;6763;48.524;9.044;2023-05-08T12:07:53;98125.41;;;24.83;47.05
13387;BME280;6763;48.524;9.044;2023-05-08T12:10:19;98121.78;;;24.96;46.95
13387;BME280;6763;48.524;9.044;2023-05-08T12:12:44;98123.88;;;25.04;47.07
13387;BME280;6763;48.524;9.044;2023-05-08T12:15:12;98126.09;;;25.10;46.73
13387;BME280;6763;48.524;9.044;2023-05-08T12:17:37;98129.25;;;25.15;46.50
13387;BME280;6763;48.524;9.044;2023-05-08T12:20:14;98122.69;;;25.20;46.40
13387;BME280;6763;48.524;9.044;2023-05-08T12:22:41;98129.81;;;25.07;46.09
13387;BME280;6763;48.524;9.044;2023-05-08T12:25:07;98130.72;;;24.95;46.60
13387;BME280;6763;48.524;9.044;2023-05-08T12:27:37;98132.38;;;24.96;46.92
13387;BME280;6763;48.524;9.044;2023-05-08T12:30:07;98130.03;;;25.04;46.48
13387;BME280;6763;48.524;9.044;2023-05-08T12:32:35;98130.53;;;25.09;46.09
13387;BME280;6763;48.524;9.044;2023-05-08T12:35:01;98133.88;;;25.00;46.19
13387;BME280;6763;48.524;9.044;2023-05-08T12:37:27;98125.94;;;25.00;46.58
13387;BME280;6763;48.524;9.044;2023-05-08T12:39:52;98123.63;;;25.19;46.42
13387;BME280;6763;48.524;9.044;2023-05-08T12:42:18;98127.00;;;25.34;46.17
13387;BME280;6763;48.524;9.044;2023-05-08T12:44:50;98131.41;;;25.46;46.20
13387;BME280;6763;48.524;9.044;2023-05-08T12:47:17;98131.00;;;25.63;46.04
13387;BME280;6763;48.524;9.044;2023-05-08T12:49:43;98129.44;;;25.84;46.02
13387;BME280;6763;48.524;9.044;2023-05-08T12:52:12;98128.78;;;26.05;45.02
13387;BME280;6763;48.524;9.044;2023-05-08T12:54:39;98132.66;;;26.12;44.33
13387;BME280;6763;48.524;9.044;2023-05-08T12:57:13;98137.13;;;26.11;43.92
13387;BME280;6763;48.524;9.044;2023-05-08T12:59:40;98131.09;;;26.09;43.94
13387;BME280;6763;48.524;9.044;2023-05-08T13:02:20;98132.25;;;26.29;43.63
13387;BME280;6763;48.524;9.044;2023-05-08T13:04:53;98126.88;;;26.64;43.32
13387;BME280;6763;48.524;9.044;2023-05-08T13:07:20;98128.25;;;27.02;42.76
13387;BME280;6763;48.524;9.044;2023-05-08T13:09:59;98116.84;;;27.34;42.13
13387;BME280;6763;48.524;9.044;2023-05-08T13:12:27;98118.75;;;27.54;41.34
13387;BME280;6763;48.524;9.044;2023-05-08T13:14:53;98118.19;;;27.71;41.24
13387;BME280;6763;48.524;9.044;2023-05-08T13:17:18;98119.56;;;27.86;40.61
13387;BME280;6763;48.524;9.044;2023-05-08T13:19:44;98118.56;;;27.98;40.62
13387;BME280;6763;48.524;9.044;2023-05-08T13:22:09;98117.06;;;28.16;40.25
13387;BME280;6763;48.524;9.044;2023-05-08T13:24:34;98118.47;;;28.41;39.64
13387;BME280;6763;48.524;9.044;2023-05-08T13:27:00;98116.25;;;28.67;39.33
13387;BME280;6763;48.524;9.044;2023-05-08T13:29:26;98119.97;;;28.85;38.95
13387;BME280;6763;48.524;9.044;2023-05-08T13:31:51;98121.63;;;29.07;38.13
13387;BME280;6763;48.524;9.044;2023-05-08T13:34:17;98108.38;;;29.35;37.47
13387;BME280;6763;48.524;9.044;2023-05-08T13:36:42;98110.44;;;29.81;37.16
13387;BME280;6763;48.524;9.044;2023-05-08T13:39:08;98094.75;;;30.53;36.08
13387;BME280;6763;48.524;9.044;2023-05-08T13:41:34;98088.53;;;31.26;34.81
13387;BME280;6763;48.524;9.044;2023-05-08T13:43:59;98089.69;;;31.86;33.48
13387;BME280;6763;48.524;9.044;2023-05-08T13:46:25;98086.22;;;32.29;32.71
13387;BME280;6763;48.524;9.044;2023-05-08T13:48:50;98090.97;;;32.43;32.20
13387;BME280;6763;48.524;9.044;2023-05-08T13:51:15;98085.81;;;32.68;31.88
13387;BME280;6763;48.524;9.044;2023-05-08T13:53:41;98081.75;;;32.97;30.94
13387;BME280;6763;48.524;9.044;2023-05-08T13:56:06;98081.44;;;33.00;30.43
13387;BME280;6763;48.524;9.044;2023-05-08T13:58:32;98079.84;;;33.16;29.97
13387;BME280;6763;48.524;9.044;2023-05-08T14:00:57;98080.00;;;33.56;29.52